Time;durP1;ratioP1;P1;durP2;ratioP2;P2;SDS_P1;SDS_P2;PMS_P1;PMS_P2;Temp;Humidity;BMP_temperature;BMP_pressure;BME280_temperature;BME280_humidity;BME280_pressure;Samples;Min_cycle;Max_cycle;Signal;HPM_P1;HPM_P2
2024/01/06 00:02:07;;;;;;;;;;;8.20;99.90;;;;;;5038320;28;19970;-76
2024/01/06 00:04:33;;;;;;;;;;;8.10;99.90;;;;;;5054255;28;19916;-77
2024/01/06 00:06:58;;;;;;;;;;;8.20;99.90;;;;;;5054292;28;20385;-76
2024/01/06 00:09:24;;;;;;;;;;;8.10;99.90;;;;;;5054429;28;19923;-76
2024/01/06 00:11:50;;;;;;;;;;;8.20;99.90;;;;;;5036320;28;19962;-76
2024/01/06 00:14:15;;;;;;;;;;;8.20;99.90;;;;;;5054362;28;19908;-76
2024/01/06 00:16:41;;;;;;;;;;;8.20;99.90;;;;;;5053967;28;19905;-76
2024/01/06 00:19:06;;;;;;;;;;;8.20;99.90;;;;;;5036655;28;19915;-76
2024/01/06 00:21:32;;;;;;;;;;;8.20;99.90;;;;;;5036895;28;19953;-76
2024/01/06 00:23:57;;;;;;;;;;;8.20;99.90;;;;;;5037967;28;19920;-77
2024/01/06 00:26:24;;;;;;;;;;;8.00;99.90;;;;;;5038169;28;20277;-76
2024/01/06 00:28:50;;;;;;;;;;;7.90;99.90;;;;;;5055563;28;20006;-76
2024/01/06 00:31:19;;;;;;;;;;;8.00;99.90;;;;;;5037940;28;20381;-77
2024/01/06 00:33:45;;;;;;;;;;;8.00;99.90;;;;;;5055922;28;19978;-77
2024/01/06 00:36:10;;;;;;;;;;;8.00;99.90;;;;;;5055713;28;20389;-76
2024/01/06 00:38:36;;;;;;;;;;;7.90;99.90;;;;;;5035520;28;19926;-76
2024/01/06 00:41:02;;;;;;;;;;;8.00;99.90;;;;;;5054130;28;20284;-76
2024/01/06 00:43:27;;;;;;;;;;;7.90;99.90;;;;;;5054204;28;19913;-76
2024/01/06 00:45:53;;;;;;;;;;;8.10;99.90;;;;;;5035537;28;19905;-77
2024/01/06 00:48:18;;;;;;;;;;;7.90;99.90;;;;;;5036007;28;19909;-77
2024/01/06 00:50:44;;;;;;;;;;;8.10;99.90;;;;;;5036238;28;20011;-77
2024/01/06 00:53:09;;;;;;;;;;;8.00;99.90;;;;;;5035732;28;20435;-76
2024/01/06 00:55:34;;;;;;;;;;;8.10;99.90;;;;;;5054746;28;20337;-76
2024/01/06 00:58:00;;;;;;;;;;;7.80;99.90;;;;;;5036064;28;20344;-77
2024/01/06 01:00:27;;;;;;;;;;;7.80;99.90;;;;;;5036702;28;19911;-77
2024/01/06 01:02:52;;;;;;;;;;;8.00;99.90;;;;;;5035962;28;19932;-76
2024/01/06 01:05:18;;;;;;;;;;;7.90;99.90;;;;;;5035947;28;19917;-77
2024/01/06 01:07:44;;;;;;;;;;;8.00;99.90;;;;;;5054319;28;19908;-77
2024/01/06 01:10:09;;;;;;;;;;;7.90;99.90;;;;;;5035970;28;19904;-76
2024/01/06 01:12:35;;;;;;;;;;;7.90;99.90;;;;;;5036221;28;20431;-76
2024/01/06 01:15:00;;;;;;;;;;;7.90;99.90;;;;;;5035899;28;19916;-76
2024/01/06 01:17:26;;;;;;;;;;;7.80;99.90;;;;;;5054530;28;19959;-76
2024/01/06 01:19:51;;;;;;;;;;;7.80;99.90;;;;;;5054221;28;19905;-76
2024/01/06 01:22:17;;;;;;;;;;;7.80;99.90;;;;;;5054040;28;19908;-77
2024/01/06 01:24:42;;;;;;;;;;;7.90;99.90;;;;;;5036164;28;20415;-76
2024/01/06 01:27:08;;;;;;;;;;;8.00;99.90;;;;;;5054137;28;19955;-76
2024/01/06 01:29:34;;;;;;;;;;;8.10;99.90;;;;;;5054258;28;19958;-76
2024/01/06 01:32:00;;;;;;;;;;;8.20;99.90;;;;;;5036324;28;19912;-76
2024/01/06 01:34:25;;;;;;;;;;;8.10;99.90;;;;;;5035912;28;19924;-76
2024/01/06 01:36:51;;;;;;;;;;;8.20;99.90;;;;;;5054159;28;19950;-76
2024/01/06 01:39:16;;;;;;;;;;;8.20;99.90;;;;;;5054079;28;20510;-77
2024/01/06 01:41:42;;;;;;;;;;;8.10;99.90;;;;;;5054070;28;19958;-76
2024/01/06 01:44:07;;;;;;;;;;;8.20;99.90;;;;;;5035940;28;20317;-76
2024/01/06 01:46:33;;;;;;;;;;;8.10;99.90;;;;;;5035900;28;19905;-76
2024/01/06 01:48:59;;;;;;;;;;;8.10;99.90;;;;;;5054866;28;19905;-77
2024/01/06 01:51:29;;;;;;;;;;;7.90;99.90;;;;;;5037265;28;19919;-77
2024/01/06 01:53:59;;;;;;;;;;;8.20;99.90;;;;;;5057252;28;19904;-76
2024/01/06 01:56:25;;;;;;;;;;;8.20;99.90;;;;;;5057131;28;19991;-77
2024/01/06 01:58:51;;;;;;;;;;;8.20;99.90;;;;;;5040965;28;19920;-78
2024/01/06 02:01:17;;;;;;;;;;;8.20;99.90;;;;;;5043245;28;19909;-76
2024/01/06 02:03:45;;;;;;;;;;;8.40;99.90;;;;;;5042331;28;19912;-76
2024/01/06 02:06:11;;;;;;;;;;;8.30;99.90;;;;;;5059410;28;19904;-75
2024/01/06 02:08:37;;;;;;;;;;;8.20;99.90;;;;;;5059005;28;19905;-76
2024/01/06 02:11:03;;;;;;;;;;;8.30;99.90;;;;;;5058716;28;19971;-76
2024/01/06 02:13:35;;;;;;;;;;;8.30;99.90;;;;;;5041626;28;19912;-76
2024/01/06 02:16:02;;;;;;;;;;;8.40;99.90;;;;;;5056852;28;19997;-75
2024/01/06 02:18:27;;;;;;;;;;;8.30;99.90;;;;;;5037812;28;19908;-76
2024/01/06 02:20:57;;;;;;;;;;;8.30;99.90;;;;;;5056020;28;20000;-76
2024/01/06 02:23:22;;;;;;;;;;;8.00;99.90;;;;;;5037941;28;19905;-76
2024/01/06 02:25:48;;;;;;;;;;;8.10;99.90;;;;;;5055756;28;19923;-75
2024/01/06 02:28:13;;;;;;;;;;;7.90;99.90;;;;;;5037688;28;19943;-75
2024/01/06 02:30:39;;;;;;;;;;;8.00;99.90;;;;;;5037390;28;19948;-75
2024/01/06 02:33:04;;;;;;;;;;;8.10;99.90;;;;;;5037843;28;20470;-75
2024/01/06 02:35:30;;;;;;;;;;;8.20;99.90;;;;;;5055212;28;19923;-75
2024/01/06 02:37:55;;;;;;;;;;;8.10;99.90;;;;;;5037820;28;19905;-75
2024/01/06 02:40:21;;;;;;;;;;;8.10;99.90;;;;;;5055881;28;19909;-75
2024/01/06 02:42:46;;;;;;;;;;;8.00;99.90;;;;;;5055679;28;19904;-75
2024/01/06 02:45:12;;;;;;;;;;;7.90;99.90;;;;;;5056024;28;20007;-76
2024/01/06 02:47:37;;;;;;;;;;;7.90;99.90;;;;;;5037834;28;20296;-76
2024/01/06 02:50:03;;;;;;;;;;;7.80;99.90;;;;;;5056011;28;19904;-77
2024/01/06 02:52:29;;;;;;;;;;;7.90;99.90;;;;;;5056895;28;19905;-76
2024/01/06 02:54:54;;;;;;;;;;;7.90;99.90;;;;;;5037732;28;20282;-77
2024/01/06 02:57:20;;;;;;;;;;;7.80;99.90;;;;;;5038384;28;19908;-76
2024/01/06 02:59:45;;;;;;;;;;;7.90;99.90;;;;;;5038758;28;19908;-77
2024/01/06 03:02:11;;;;;;;;;;;7.90;99.90;;;;;;5039167;28;19905;-77
2024/01/06 03:04:37;;;;;;;;;;;7.90;99.90;;;;;;5056086;28;19923;-76
2024/01/06 03:07:02;;;;;;;;;;;8.10;99.90;;;;;;5038345;28;20365;-77
2024/01/06 03:09:28;;;;;;;;;;;8.00;99.90;;;;;;5055808;28;19963;-76
2024/01/06 03:11:53;;;;;;;;;;;7.90;99.90;;;;;;5056326;28;19905;-76
2024/01/06 03:14:19;;;;;;;;;;;8.00;99.90;;;;;;5038547;28;19905;-77
2024/01/06 03:16:44;;;;;;;;;;;7.90;99.90;;;;;;5038178;28;19912;-77
2024/01/06 03:19:10;;;;;;;;;;;8.00;99.90;;;;;;5038159;28;19909;-77
2024/01/06 03:21:35;;;;;;;;;;;8.10;99.90;;;;;;5038397;28;19904;-77
2024/01/06 03:24:01;;;;;;;;;;;8.00;99.90;;;;;;5056653;28;20395;-76
2024/01/06 03:26:26;;;;;;;;;;;8.10;99.90;;;;;;5039091;28;19908;-75
2024/01/06 03:28:54;;;;;;;;;;;7.90;99.90;;;;;;5057376;28;19916;-76
2024/01/06 03:31:22;;;;;;;;;;;8.00;99.90;;;;;;5039671;28;19924;-76
2024/01/06 03:33:47;;;;;;;;;;;8.00;99.90;;;;;;5039130;28;19912;-76
2024/01/06 03:36:15;;;;;;;;;;;7.90;99.90;;;;;;5057046;28;19909;-76
2024/01/06 03:38:41;;;;;;;;;;;7.90;99.90;;;;;;5038725;28;19915;-76
2024/01/06 03:41:06;;;;;;;;;;;8.10;99.90;;;;;;5038152;28;19956;-76
2024/01/06 03:43:32;;;;;;;;;;;8.20;99.90;;;;;;5056092;28;19969;-76
2024/01/06 03:45:59;;;;;;;;;;;8.10;99.90;;;;;;5038166;28;19930;-76
2024/01/06 03:48:25;;;;;;;;;;;8.10;99.90;;;;;;5056327;28;19905;-77
2024/01/06 03:50:51;;;;;;;;;;;7.90;99.90;;;;;;5056074;28;19959;-76
2024/01/06 03:53:16;;;;;;;;;;;8.00;99.90;;;;;;5038435;28;19934;-77
2024/01/06 03:55:42;;;;;;;;;;;8.10;99.90;;;;;;5055787;28;19959;-76
2024/01/06 03:58:08;;;;;;;;;;;8.10;99.90;;;;;;5054155;28;19909;-75
2024/01/06 04:00:33;;;;;;;;;;;8.10;99.90;;;;;;5036442;28;19905;-76
2024/01/06 04:02:59;;;;;;;;;;;8.10;99.90;;;;;;5054877;28;19904;-76
2024/01/06 04:05:24;;;;;;;;;;;8.10;99.90;;;;;;5055154;28;19955;-77
2024/01/06 04:07:50;;;;;;;;;;;8.00;99.90;;;;;;5038605;28;20358;-76
2024/01/06 04:10:15;;;;;;;;;;;7.90;99.90;;;;;;5038105;28;19912;-76
2024/01/06 04:12:41;;;;;;;;;;;7.90;99.90;;;;;;5036272;28;20300;-75
2024/01/06 04:15:06;;;;;;;;;;;8.00;99.90;;;;;;5038032;28;20413;-76
2024/01/06 04:17:33;;;;;;;;;;;8.00;99.90;;;;;;5037801;28;20016;-76
2024/01/06 04:19:58;;;;;;;;;;;7.90;99.90;;;;;;5038245;28;19915;-76
2024/01/06 04:22:24;;;;;;;;;;;8.00;99.90;;;;;;5055910;28;19905;-76
2024/01/06 04:24:49;;;;;;;;;;;7.90;99.90;;;;;;5039088;28;19912;-77
2024/01/06 04:27:15;;;;;;;;;;;7.80;99.90;;;;;;5037083;28;19933;-76
2024/01/06 04:29:40;;;;;;;;;;;7.90;99.90;;;;;;5035104;28;19904;-74
2024/01/06 04:32:07;;;;;;;;;;;7.90;99.90;;;;;;5053620;28;19916;-76
2024/01/06 04:34:33;;;;;;;;;;;7.80;99.90;;;;;;5035680;28;19916;-76
2024/01/06 04:36:58;;;;;;;;;;;7.90;99.90;;;;;;5035533;28;20377;-75
2024/01/06 04:39:24;;;;;;;;;;;7.80;99.90;;;;;;5053990;28;19951;-76
2024/01/06 04:41:49;;;;;;;;;;;7.70;99.90;;;;;;5035829;28;20012;-76
2024/01/06 04:44:15;;;;;;;;;;;7.70;99.90;;;;;;5035625;28;19917;-77
2024/01/06 04:46:40;;;;;;;;;;;7.70;99.90;;;;;;5053511;28;19940;-77
2024/01/06 04:49:06;;;;;;;;;;;7.80;99.90;;;;;;5035703;28;20416;-76
2024/01/06 04:51:31;;;;;;;;;;;7.80;99.90;;;;;;5053075;28;19908;-77
2024/01/06 04:53:57;;;;;;;;;;;7.90;99.90;;;;;;5054483;28;19909;-76
2024/01/06 04:56:22;;;;;;;;;;;7.80;99.90;;;;;;5056342;28;19904;-75
2024/01/06 04:58:48;;;;;;;;;;;7.70;99.90;;;;;;5037842;28;20370;-76
2024/01/06 05:01:13;;;;;;;;;;;7.80;99.90;;;;;;5055895;28;19919;-76
2024/01/06 05:03:39;;;;;;;;;;;7.80;99.90;;;;;;5037774;28;19916;-76
2024/01/06 05:06:04;;;;;;;;;;;7.70;99.90;;;;;;5056074;28;19968;-75
2024/01/06 05:08:33;;;;;;;;;;;7.70;99.90;;;;;;5055547;28;19908;-76
2024/01/06 05:10:59;;;;;;;;;;;7.90;99.90;;;;;;5053880;28;19909;-76
2024/01/06 05:13:24;;;;;;;;;;;7.70;99.90;;;;;;5053718;28;19961;-76
2024/01/06 05:15:50;;;;;;;;;;;7.80;99.90;;;;;;5035849;28;20377;-76
2024/01/06 05:18:15;;;;;;;;;;;7.80;99.90;;;;;;5035306;28;19908;-76
2024/01/06 05:20:41;;;;;;;;;;;7.80;99.90;;;;;;5053878;28;20439;-76
2024/01/06 05:23:06;;;;;;;;;;;7.80;99.90;;;;;;5035965;28;19948;-76
2024/01/06 05:25:32;;;;;;;;;;;7.80;99.90;;;;;;5035493;28;20030;-76
2024/01/06 05:27:57;;;;;;;;;;;7.70;99.90;;;;;;5053287;28;19935;-77
2024/01/06 05:30:23;;;;;;;;;;;7.70;99.90;;;;;;5035696;28;19905;-76
2024/01/06 05:32:48;;;;;;;;;;;7.80;99.90;;;;;;5053870;28;19916;-76
2024/01/06 05:35:15;;;;;;;;;;;7.80;99.90;;;;;;5035539;28;19962;-77
2024/01/06 05:37:41;;;;;;;;;;;7.80;99.90;;;;;;5035526;28;19905;-75
2024/01/06 05:40:07;;;;;;;;;;;7.80;99.90;;;;;;5035467;28;19946;-76
2024/01/06 05:42:32;;;;;;;;;;;7.80;99.90;;;;;;5035331;28;19904;-75
2024/01/06 05:44:58;;;;;;;;;;;7.70;99.90;;;;;;5035198;28;20344;-76
2024/01/06 05:47:23;;;;;;;;;;;7.80;99.90;;;;;;5035288;28;19911;-76
2024/01/06 05:49:49;;;;;;;;;;;7.80;99.90;;;;;;5053505;28;19915;-76
2024/01/06 05:52:15;;;;;;;;;;;7.70;99.90;;;;;;5036619;28;19912;-75
2024/01/06 05:54:42;;;;;;;;;;;7.70;99.90;;;;;;5053914;28;19916;-76
2024/01/06 05:57:07;;;;;;;;;;;7.70;99.90;;;;;;5036134;28;20019;-76
2024/01/06 05:59:33;;;;;;;;;;;7.70;99.90;;;;;;5035890;28;19998;-76
2024/01/06 06:01:58;;;;;;;;;;;7.70;99.90;;;;;;5035810;28;20381;-76
2024/01/06 06:04:24;;;;;;;;;;;7.70;99.90;;;;;;5035926;28;19913;-77
2024/01/06 06:06:49;;;;;;;;;;;7.80;99.90;;;;;;5053615;28;19909;-75
2024/01/06 06:09:15;;;;;;;;;;;7.70;99.90;;;;;;5036185;28;20391;-76
2024/01/06 06:11:40;;;;;;;;;;;7.70;99.90;;;;;;5036834;28;20027;-76
2024/01/06 06:14:06;;;;;;;;;;;7.80;99.90;;;;;;5054713;28;19947;-76
2024/01/06 06:16:32;;;;;;;;;;;7.70;99.90;;;;;;5036049;28;19912;-76
2024/01/06 06:18:58;;;;;;;;;;;7.60;99.90;;;;;;5035869;28;19959;-76
2024/01/06 06:21:23;;;;;;;;;;;7.80;99.90;;;;;;5054643;28;20506;-76
2024/01/06 06:23:49;;;;;;;;;;;7.90;99.90;;;;;;5036037;28;19999;-76
2024/01/06 06:26:14;;;;;;;;;;;7.80;99.90;;;;;;5054488;28;20369;-75
2024/01/06 06:28:40;;;;;;;;;;;7.80;99.90;;;;;;5036014;28;19905;-76
2024/01/06 06:31:06;;;;;;;;;;;7.80;99.90;;;;;;5054808;28;20369;-76
2024/01/06 06:33:33;;;;;;;;;;;7.80;99.90;;;;;;5054797;28;19905;-75
2024/01/06 06:35:58;;;;;;;;;;;7.90;99.90;;;;;;5037153;28;19915;-77
2024/01/06 06:38:27;;;;;;;;;;;7.80;99.90;;;;;;5037351;28;19991;-75
2024/01/06 06:40:53;;;;;;;;;;;7.70;99.90;;;;;;5051678;28;19905;-76
2024/01/06 06:43:18;;;;;;;;;;;7.60;99.90;;;;;;5033901;28;20431;-75
2024/01/06 06:45:44;;;;;;;;;;;7.60;99.90;;;;;;5037012;28;19905;-76
2024/01/06 06:48:09;;;;;;;;;;;7.50;99.90;;;;;;5055298;28;19912;-76
2024/01/06 06:50:35;;;;;;;;;;;7.60;99.90;;;;;;5055162;28;19908;-76
2024/01/06 06:53:01;;;;;;;;;;;7.50;99.90;;;;;;5037624;28;19905;-75
2024/01/06 06:55:27;;;;;;;;;;;7.40;99.90;;;;;;5037874;28;20373;-76
2024/01/06 06:57:52;;;;;;;;;;;7.40;99.90;;;;;;5037254;28;19939;-76
2024/01/06 07:00:18;;;;;;;;;;;7.60;99.90;;;;;;5055593;28;19916;-75
2024/01/06 07:02:44;;;;;;;;;;;7.40;99.90;;;;;;5055750;28;19963;-76
2024/01/06 07:05:09;;;;;;;;;;;7.50;99.90;;;;;;5055681;28;19916;-76
2024/01/06 07:07:35;;;;;;;;;;;7.50;99.90;;;;;;5037364;28;19958;-75
2024/01/06 07:10:04;;;;;;;;;;;7.70;99.90;;;;;;5037579;28;19908;-76
2024/01/06 07:12:30;;;;;;;;;;;7.60;99.90;;;;;;5055694;28;19912;-76
2024/01/06 07:14:56;;;;;;;;;;;7.70;99.90;;;;;;5055226;28;19912;-75
2024/01/06 07:17:21;;;;;;;;;;;7.70;99.90;;;;;;5037512;28;20324;-76
2024/01/06 07:19:48;;;;;;;;;;;7.60;99.90;;;;;;5036953;28;20361;-76
2024/01/06 07:22:16;;;;;;;;;;;7.70;99.90;;;;;;5055368;28;19936;-75
2024/01/06 07:24:41;;;;;;;;;;;7.60;99.90;;;;;;5036986;28;20328;-75
2024/01/06 07:27:07;;;;;;;;;;;7.50;99.90;;;;;;5037728;28;19905;-76
2024/01/06 07:29:32;;;;;;;;;;;7.50;99.90;;;;;;5055465;28;19951;-76
2024/01/06 07:31:58;;;;;;;;;;;7.50;99.90;;;;;;5055330;28;19916;-76
2024/01/06 07:34:25;;;;;;;;;;;7.60;99.90;;;;;;5036404;28;19917;-76
2024/01/06 07:36:52;;;;;;;;;;;7.50;99.90;;;;;;5036697;28;19928;-76
2024/01/06 07:39:18;;;;;;;;;;;7.60;99.90;;;;;;5055761;28;20285;-76
2024/01/06 07:41:44;;;;;;;;;;;7.40;99.90;;;;;;5055653;28;19927;-77
2024/01/06 07:44:10;;;;;;;;;;;7.50;99.90;;;;;;5055375;28;20400;-76
2024/01/06 07:46:36;;;;;;;;;;;7.30;99.90;;;;;;5037629;28;19945;-76
2024/01/06 07:49:02;;;;;;;;;;;7.30;99.90;;;;;;5036980;28;19904;-76
2024/01/06 07:51:28;;;;;;;;;;;7.30;99.90;;;;;;5037434;28;19943;-76
2024/01/06 07:53:54;;;;;;;;;;;7.20;99.90;;;;;;5055448;28;19905;-75
2024/01/06 07:56:19;;;;;;;;;;;7.20;99.90;;;;;;5038035;28;19909;-76
2024/01/06 07:58:44;;;;;;;;;;;7.20;99.90;;;;;;5056328;28;19947;-77
2024/01/06 08:01:10;;;;;;;;;;;7.10;99.90;;;;;;5056568;28;20057;-76
2024/01/06 08:03:35;;;;;;;;;;;7.20;99.90;;;;;;5038130;28;20381;-77
2024/01/06 08:06:01;;;;;;;;;;;7.20;99.90;;;;;;5038917;28;19913;-76
2024/01/06 08:08:27;;;;;;;;;;;7.10;99.90;;;;;;5037978;28;19954;-75
2024/01/06 08:10:52;;;;;;;;;;;7.10;99.90;;;;;;5054162;28;19986;-76
2024/01/06 08:13:18;;;;;;;;;;;7.10;99.90;;;;;;5037100;28;19915;-76
2024/01/06 08:15:43;;;;;;;;;;;7.10;99.90;;;;;;5036780;28;19931;-76
2024/01/06 08:18:09;;;;;;;;;;;7.20;99.90;;;;;;5055167;28;19908;-76
2024/01/06 08:20:34;;;;;;;;;;;7.10;99.90;;;;;;5037658;28;19905;-76
2024/01/06 08:23:00;;;;;;;;;;;7.00;99.90;;;;;;5055053;28;19908;-75
2024/01/06 08:25:25;;;;;;;;;;;6.90;99.90;;;;;;5037061;28;19916;-76
2024/01/06 08:27:50;;;;;;;;;;;6.80;99.90;;;;;;5037234;28;19951;-76
2024/01/06 08:30:16;;;;;;;;;;;6.80;99.90;;;;;;5036572;28;19904;-76
2024/01/06 08:32:41;;;;;;;;;;;6.80;99.90;;;;;;5037053;28;19905;-75
2024/01/06 08:35:07;;;;;;;;;;;6.80;99.90;;;;;;5054704;28;19917;-76
2024/01/06 08:37:33;;;;;;;;;;;6.80;99.90;;;;;;5054303;28;19924;-75
2024/01/06 08:39:58;;;;;;;;;;;6.90;99.90;;;;;;5054491;28;19915;-76
2024/01/06 08:42:25;;;;;;;;;;;6.80;99.90;;;;;;5036956;28;19905;-75
2024/01/06 08:44:51;;;;;;;;;;;6.70;99.90;;;;;;5037349;28;20028;-75
2024/01/06 08:47:17;;;;;;;;;;;6.80;99.90;;;;;;5037436;28;20220;-77
2024/01/06 08:49:42;;;;;;;;;;;6.70;99.90;;;;;;5036917;28;20277;-75
2024/01/06 08:52:08;;;;;;;;;;;6.60;99.90;;;;;;5052829;28;19995;-76
2024/01/06 08:54:34;;;;;;;;;;;6.70;99.90;;;;;;5052925;28;19905;-76
2024/01/06 08:57:00;;;;;;;;;;;6.90;99.90;;;;;;5055730;28;19908;-76
2024/01/06 08:59:25;;;;;;;;;;;6.80;99.90;;;;;;5055288;28;19959;-75
2024/01/06 09:01:52;;;;;;;;;;;7.00;99.90;;;;;;5039351;28;19962;-77
2024/01/06 09:04:17;;;;;;;;;;;7.00;99.90;;;;;;5039822;28;20377;-76
2024/01/06 09:06:43;;;;;;;;;;;7.00;99.90;;;;;;5053903;28;19911;-76
2024/01/06 09:09:09;;;;;;;;;;;7.00;99.90;;;;;;5054557;28;19913;-76
2024/01/06 09:11:35;;;;;;;;;;;6.80;99.90;;;;;;5052918;28;19905;-77
2024/01/06 09:14:01;;;;;;;;;;;7.00;99.90;;;;;;5053037;28;19911;-76
2024/01/06 09:16:26;;;;;;;;;;;7.20;99.90;;;;;;5052738;28;19905;-76
2024/01/06 09:18:52;;;;;;;;;;;7.20;99.90;;;;;;5035285;28;19948;-76
2024/01/06 09:21:17;;;;;;;;;;;7.20;99.90;;;;;;5035915;28;19904;-75
2024/01/06 09:23:43;;;;;;;;;;;7.20;99.90;;;;;;5034894;28;19919;-76
2024/01/06 09:26:09;;;;;;;;;;;7.20;99.90;;;;;;5052563;28;19918;-76
2024/01/06 09:28:34;;;;;;;;;;;7.10;99.90;;;;;;5052971;28;19904;-76
2024/01/06 09:31:00;;;;;;;;;;;7.00;99.90;;;;;;5035186;28;19996;-76
2024/01/06 09:33:25;;;;;;;;;;;6.90;99.90;;;;;;5034508;28;19905;-76
2024/01/06 09:35:51;;;;;;;;;;;6.80;99.90;;;;;;5035138;28;19974;-76
2024/01/06 09:38:18;;;;;;;;;;;6.90;99.90;;;;;;5053237;28;19911;-76
2024/01/06 09:40:44;;;;;;;;;;;7.00;99.90;;;;;;5053131;28;19912;-76
2024/01/06 09:43:10;;;;;;;;;;;7.10;99.90;;;;;;5052813;28;19940;-76
2024/01/06 09:45:35;;;;;;;;;;;7.10;99.90;;;;;;5034429;28;19948;-76
2024/01/06 09:48:03;;;;;;;;;;;7.30;99.90;;;;;;5034904;28;19905;-76
2024/01/06 09:50:30;;;;;;;;;;;7.40;99.90;;;;;;5035151;28;19950;-76
2024/01/06 09:53:03;;;;;;;;;;;7.60;99.90;;;;;;5035291;28;19927;-76
2024/01/06 09:55:29;;;;;;;;;;;7.70;99.90;;;;;;5053167;28;19916;-76
2024/01/06 09:57:55;;;;;;;;;;;7.70;99.90;;;;;;5035814;28;20289;-76
2024/01/06 10:00:21;;;;;;;;;;;7.70;99.90;;;;;;5036550;28;19987;-77
2024/01/06 10:02:51;;;;;;;;;;;7.70;99.90;;;;;;5054660;28;19970;-76
2024/01/06 10:05:17;;;;;;;;;;;7.70;99.90;;;;;;5036100;28;19917;-76
2024/01/06 10:07:45;;;;;;;;;;;7.60;99.90;;;;;;5036696;28;19991;-76
2024/01/06 10:10:11;;;;;;;;;;;7.50;99.90;;;;;;5053865;28;20354;-76
2024/01/06 10:12:40;;;;;;;;;;;7.60;99.90;;;;;;5053410;28;19905;-76
2024/01/06 10:15:09;;;;;;;;;;;7.90;99.90;;;;;;5054429;28;19966;-76
2024/01/06 10:17:41;;;;;;;;;;;8.20;99.90;;;;;;5036391;28;19915;-76
2024/01/06 10:20:12;;;;;;;;;;;8.30;99.90;;;;;;5057482;28;19911;-75
2024/01/06 10:22:38;;;;;;;;;;;8.70;99.90;;;;;;5057939;28;20296;-76
2024/01/06 10:25:07;;;;;;;;;;;8.70;99.90;;;;;;5039975;28;19908;-76
2024/01/06 10:27:37;;;;;;;;;;;8.70;99.90;;;;;;5040900;28;20280;-76
2024/01/06 10:30:02;;;;;;;;;;;8.80;99.90;;;;;;5039182;28;20357;-76
2024/01/06 10:32:31;;;;;;;;;;;8.70;99.90;;;;;;5058021;28;19942;-75
2024/01/06 10:34:57;;;;;;;;;;;8.80;99.90;;;;;;5040030;28;19917;-76
2024/01/06 10:37:24;;;;;;;;;;;8.80;99.90;;;;;;5058478;28;19916;-76
2024/01/06 10:40:04;;;;;;;;;;;8.90;99.90;;;;;;5040300;28;19909;-76
2024/01/06 10:42:30;;;;;;;;;;;9.10;99.90;;;;;;5039476;28;19904;-76
2024/01/06 10:44:56;;;;;;;;;;;9.00;99.90;;;;;;5058163;28;19922;-75
2024/01/06 10:47:22;;;;;;;;;;;8.90;99.90;;;;;;5039943;28;19987;-76
2024/01/06 10:49:48;;;;;;;;;;;9.10;99.90;;;;;;5058488;28;19959;-77
2024/01/06 10:52:14;;;;;;;;;;;9.00;99.90;;;;;;5039718;28;19908;-76
2024/01/06 10:54:39;;;;;;;;;;;9.10;99.90;;;;;;5039852;28;19912;-76
2024/01/06 10:57:06;;;;;;;;;;;9.10;99.90;;;;;;5040251;28;19909;-77
2024/01/06 10:59:32;;;;;;;;;;;9.20;99.90;;;;;;5057660;28;19904;-76
2024/01/06 11:01:58;;;;;;;;;;;9.20;99.90;;;;;;5055667;28;19905;-76
2024/01/06 11:04:24;;;;;;;;;;;9.10;99.90;;;;;;5037140;28;20010;-76
2024/01/06 11:06:50;;;;;;;;;;;9.00;99.90;;;;;;5036898;28;19935;-76
2024/01/06 11:09:19;;;;;;;;;;;9.00;99.90;;;;;;5055075;28;19905;-76
2024/01/06 11:11:45;;;;;;;;;;;9.00;99.90;;;;;;5037266;28;19908;-76
2024/01/06 11:14:17;;;;;;;;;;;9.10;99.90;;;;;;5055288;28;19911;-77
2024/01/06 11:16:43;;;;;;;;;;;9.10;99.90;;;;;;5036762;28;19927;-76
2024/01/06 11:19:29;;;;;;;;;;;9.10;99.90;;;;;;5037027;28;20353;-76
2024/01/06 11:21:54;;;;;;;;;;;9.20;99.90;;;;;;5040458;28;20454;-76
2024/01/06 11:24:20;;;;;;;;;;;9.30;99.90;;;;;;5054745;28;19995;-76
2024/01/06 11:26:49;;;;;;;;;;;9.40;99.90;;;;;;5055068;28;19911;-76
2024/01/06 11:29:14;;;;;;;;;;;9.40;99.90;;;;;;5037563;28;19911;-76
2024/01/06 11:31:40;;;;;;;;;;;9.30;99.90;;;;;;5037184;28;20003;-76
2024/01/06 11:34:16;;;;;;;;;;;9.40;99.90;;;;;;5037066;28;19917;-76
2024/01/06 11:36:45;;;;;;;;;;;9.30;99.90;;;;;;5055322;28;19904;-77
2024/01/06 11:39:30;;;;;;;;;;;9.40;99.90;;;;;;5054911;28;19905;-76
2024/01/06 11:41:57;;;;;;;;;;;9.40;99.90;;;;;;5037244;28;19959;-77
2024/01/06 11:44:23;;;;;;;;;;;9.30;99.90;;;;;;5054688;28;19958;-76
2024/01/06 11:46:49;;;;;;;;;;;9.20;99.90;;;;;;5037442;28;19908;-76
2024/01/06 11:49:15;;;;;;;;;;;9.20;99.90;;;;;;5055611;28;19964;-76
2024/01/06 11:51:41;;;;;;;;;;;9.10;99.90;;;;;;5054749;28;19950;-76
2024/01/06 11:54:08;;;;;;;;;;;8.90;99.90;;;;;;5037115;28;19911;-76
2024/01/06 11:56:34;;;;;;;;;;;8.80;99.90;;;;;;5036227;28;20369;-76
2024/01/06 11:59:00;;;;;;;;;;;8.60;99.90;;;;;;5054636;28;20030;-76
2024/01/06 12:01:26;;;;;;;;;;;8.60;99.90;;;;;;5036620;28;19944;-76
2024/01/06 12:03:54;;;;;;;;;;;8.60;99.90;;;;;;5036232;28;19967;-76
2024/01/06 12:06:21;;;;;;;;;;;8.50;99.90;;;;;;5055303;28;19976;-76
2024/01/06 12:08:46;;;;;;;;;;;8.40;99.90;;;;;;5054482;28;19974;-76
2024/01/06 12:11:12;;;;;;;;;;;8.40;99.90;;;;;;5053780;28;20402;-76
2024/01/06 12:13:38;;;;;;;;;;;8.30;99.90;;;;;;5035771;28;19905;-76
2024/01/06 12:16:03;;;;;;;;;;;8.30;99.90;;;;;;5036367;28;19911;-76
2024/01/06 12:18:29;;;;;;;;;;;8.40;99.90;;;;;;5054613;28;20003;-76
2024/01/06 12:20:54;;;;;;;;;;;8.20;99.90;;;;;;5036169;28;19912;-76
2024/01/06 12:23:24;;;;;;;;;;;8.20;99.90;;;;;;5036426;28;19958;-77
2024/01/06 12:25:50;;;;;;;;;;;8.10;99.90;;;;;;5036689;28;19923;-76
2024/01/06 12:28:15;;;;;;;;;;;8.10;99.90;;;;;;5036690;28;19905;-76
2024/01/06 12:30:41;;;;;;;;;;;8.10;99.90;;;;;;5054815;28;20381;-76
2024/01/06 12:33:06;;;;;;;;;;;8.30;99.90;;;;;;5054854;28;20403;-76
2024/01/06 12:35:32;;;;;;;;;;;8.20;99.90;;;;;;5036632;28;19960;-75
2024/01/06 12:37:57;;;;;;;;;;;8.20;99.90;;;;;;5036019;28;19944;-77
2024/01/06 12:40:23;;;;;;;;;;;8.20;99.90;;;;;;5053923;28;19954;-75
2024/01/06 12:42:48;;;;;;;;;;;8.30;99.90;;;;;;5053061;28;20499;-76
2024/01/06 12:45:16;;;;;;;;;;;8.30;99.90;;;;;;5054841;28;19917;-76
2024/01/06 12:47:42;;;;;;;;;;;8.40;99.90;;;;;;5037034;28;20301;-76
2024/01/06 12:50:08;;;;;;;;;;;8.30;99.90;;;;;;5038112;28;19905;-76
2024/01/06 12:52:33;;;;;;;;;;;8.30;99.90;;;;;;5037048;28;19928;-76
2024/01/06 12:54:59;;;;;;;;;;;8.20;99.90;;;;;;5036021;28;20365;-76
2024/01/06 12:57:25;;;;;;;;;;;8.20;99.90;;;;;;5037265;28;19904;-77
2024/01/06 12:59:50;;;;;;;;;;;8.20;99.90;;;;;;5038411;28;20387;-76
2024/01/06 13:02:16;;;;;;;;;;;8.10;99.90;;;;;;5038124;28;19915;-76
2024/01/06 13:04:41;;;;;;;;;;;8.00;99.90;;;;;;5038602;28;19912;-75
2024/01/06 13:07:07;;;;;;;;;;;7.70;99.90;;;;;;5039084;28;19910;-77
2024/01/06 13:09:32;;;;;;;;;;;8.00;99.90;;;;;;5053224;28;19974;-76
2024/01/06 13:12:00;;;;;;;;;;;7.90;99.90;;;;;;5034861;28;20007;-76
2024/01/06 13:14:29;;;;;;;;;;;7.80;99.90;;;;;;5053084;28;19905;-76
2024/01/06 13:16:55;;;;;;;;;;;7.80;99.90;;;;;;5053074;28;19912;-75
2024/01/06 13:19:21;;;;;;;;;;;7.80;99.90;;;;;;5034874;28;19904;-76
2024/01/06 13:21:47;;;;;;;;;;;7.80;99.90;;;;;;5052462;28;20373;-76
2024/01/06 13:24:12;;;;;;;;;;;7.90;99.90;;;;;;5034572;28;19908;-76
2024/01/06 13:26:38;;;;;;;;;;;8.00;99.90;;;;;;5034675;28;20436;-76
2024/01/06 13:29:03;;;;;;;;;;;7.90;99.90;;;;;;5035004;28;20265;-76
2024/01/06 13:31:30;;;;;;;;;;;8.00;99.90;;;;;;5051928;28;19999;-76
2024/01/06 13:33:56;;;;;;;;;;;7.90;99.90;;;;;;5034364;28;19940;-76
2024/01/06 13:36:22;;;;;;;;;;;7.80;99.90;;;;;;5034323;28;19944;-76
2024/01/06 13:38:48;;;;;;;;;;;7.80;99.90;;;;;;5052743;28;20323;-76
2024/01/06 13:41:14;;;;;;;;;;;7.90;99.90;;;;;;5052324;28;19904;-77
2024/01/06 13:43:39;;;;;;;;;;;7.80;99.90;;;;;;5034160;28;19950;-77
2024/01/06 13:46:05;;;;;;;;;;;7.70;99.90;;;;;;5034967;28;19919;-76
2024/01/06 13:48:30;;;;;;;;;;;7.70;99.90;;;;;;5052381;28;20558;-76
2024/01/06 13:50:57;;;;;;;;;;;7.60;99.90;;;;;;5052275;28;19905;-76
2024/01/06 13:53:22;;;;;;;;;;;7.60;99.90;;;;;;5019867;28;20016;-77
2024/01/06 13:55:48;;;;;;;;;;;7.60;99.90;;;;;;5038199;28;19952;-77
2024/01/06 13:58:13;;;;;;;;;;;7.60;99.90;;;;;;5037892;28;19943;-76
2024/01/06 14:00:39;;;;;;;;;;;7.60;99.90;;;;;;5055673;28;20381;-77
2024/01/06 14:03:06;;;;;;;;;;;7.60;99.90;;;;;;5038559;28;19958;-77
2024/01/06 14:05:32;;;;;;;;;;;7.50;99.90;;;;;;5038028;28;20300;-76
2024/01/06 14:07:58;;;;;;;;;;;7.50;99.90;;;;;;5039318;28;19904;-77
2024/01/06 14:10:23;;;;;;;;;;;7.50;99.90;;;;;;5038692;28;20364;-77
2024/01/06 14:12:49;;;;;;;;;;;7.40;99.90;;;;;;5057391;28;19905;-78
2024/01/06 14:15:14;;;;;;;;;;;7.40;99.90;;;;;;5057617;28;20008;-77
2024/01/06 14:17:40;;;;;;;;;;;7.40;99.90;;;;;;5039381;28;19912;-76
2024/01/06 14:20:06;;;;;;;;;;;7.40;99.90;;;;;;5058371;28;19908;-77
2024/01/06 14:22:32;;;;;;;;;;;7.40;99.90;;;;;;5039594;28;19948;-77
2024/01/06 14:24:57;;;;;;;;;;;7.60;99.90;;;;;;5056848;28;20377;-76